sensor_id;sensor_type;location;lat;lon;timestamp;P1;durP1;ratioP1;P2;durP2;ratioP2
56720;SDS011;53183;47.412;18.884;2023-12-28T00:00:50;22.73;;;13.00;;
56720;SDS011;53183;47.412;18.884;2023-12-28T00:03:18;25.95;;;14.35;;
56720;SDS011;53183;47.412;18.884;2023-12-28T00:05:45;32.10;;;13.40;;
56720;SDS011;53183;47.412;18.884;2023-12-28T00:08:12;26.98;;;14.02;;
56720;SDS011;53183;47.412;18.884;2023-12-28T00:10:39;29.17;;;14.23;;
56720;SDS011;53183;47.412;18.884;2023-12-28T00:13:06;27.90;;;14.90;;
56720;SDS011;53183;47.412;18.884;2023-12-28T00:15:33;22.33;;;12.15;;
56720;SDS011;53183;47.412;18.884;2023-12-28T00:18:00;27.42;;;11.73;;
56720;SDS011;53183;47.412;18.884;2023-12-28T00:20:28;28.75;;;13.48;;
56720;SDS011;53183;47.412;18.884;2023-12-28T00:22:55;19.67;;;11.52;;
56720;SDS011;53183;47.412;18.884;2023-12-28T00:25:22;24.70;;;11.68;;
56720;SDS011;53183;47.412;18.884;2023-12-28T00:27:49;21.85;;;12.15;;
56720;SDS011;53183;47.412;18.884;2023-12-28T00:30:16;22.83;;;11.95;;
56720;SDS011;53183;47.412;18.884;2023-12-28T00:32:45;20.55;;;11.98;;
56720;SDS011;53183;47.412;18.884;2023-12-28T00:35:14;27.52;;;12.90;;
56720;SDS011;53183;47.412;18.884;2023-12-28T00:37:42;22.13;;;12.15;;
56720;SDS011;53183;47.412;18.884;2023-12-28T00:40:11;20.15;;;12.68;;
56720;SDS011;53183;47.412;18.884;2023-12-28T00:42:38;22.40;;;11.32;;
56720;SDS011;53183;47.412;18.884;2023-12-28T00:45:09;21.75;;;13.13;;
56720;SDS011;53183;47.412;18.884;2023-12-28T00:47:38;24.50;;;10.23;;
56720;SDS011;53183;47.412;18.884;2023-12-28T00:50:05;20.88;;;10.98;;
56720;SDS011;53183;47.412;18.884;2023-12-28T00:52:34;24.08;;;11.23;;
56720;SDS011;53183;47.412;18.884;2023-12-28T00:55:04;17.67;;;9.90;;
56720;SDS011;53183;47.412;18.884;2023-12-28T00:57:31;20.25;;;11.10;;
56720;SDS011;53183;47.412;18.884;2023-12-28T01:00:00;18.83;;;11.18;;
56720;SDS011;53183;47.412;18.884;2023-12-28T01:02:28;20.73;;;10.70;;
56720;SDS011;53183;47.412;18.884;2023-12-28T01:04:55;20.05;;;10.75;;
56720;SDS011;53183;47.412;18.884;2023-12-28T01:07:22;23.35;;;10.43;;
56720;SDS011;53183;47.412;18.884;2023-12-28T01:09:55;22.45;;;10.77;;
56720;SDS011;53183;47.412;18.884;2023-12-28T01:12:25;22.42;;;10.15;;
56720;SDS011;53183;47.412;18.884;2023-12-28T01:14:52;17.60;;;9.90;;
56720;SDS011;53183;47.412;18.884;2023-12-28T01:17:19;18.12;;;9.23;;
56720;SDS011;53183;47.412;18.884;2023-12-28T01:19:46;16.05;;;9.13;;
56720;SDS011;53183;47.412;18.884;2023-12-28T01:22:14;18.80;;;9.63;;
56720;SDS011;53183;47.412;18.884;2023-12-28T01:24:41;16.85;;;9.73;;
56720;SDS011;53183;47.412;18.884;2023-12-28T01:27:08;19.27;;;10.20;;
56720;SDS011;53183;47.412;18.884;2023-12-28T01:29:35;18.70;;;10.45;;
56720;SDS011;53183;47.412;18.884;2023-12-28T01:32:03;21.15;;;10.02;;
56720;SDS011;53183;47.412;18.884;2023-12-28T01:34:31;16.52;;;9.23;;
56720;SDS011;53183;47.412;18.884;2023-12-28T01:37:01;15.98;;;9.02;;
56720;SDS011;53183;47.412;18.884;2023-12-28T01:39:31;20.52;;;9.65;;
56720;SDS011;53183;47.412;18.884;2023-12-28T01:41:59;14.27;;;8.48;;
56720;SDS011;53183;47.412;18.884;2023-12-28T01:44:26;19.90;;;10.05;;
56720;SDS011;53183;47.412;18.884;2023-12-28T01:46:54;18.60;;;8.68;;
56720;SDS011;53183;47.412;18.884;2023-12-28T01:49:22;16.85;;;8.13;;
56720;SDS011;53183;47.412;18.884;2023-12-28T01:51:50;17.95;;;8.85;;
56720;SDS011;53183;47.412;18.884;2023-12-28T01:54:18;21.52;;;9.00;;
56720;SDS011;53183;47.412;18.884;2023-12-28T01:56:47;16.52;;;8.73;;
56720;SDS011;53183;47.412;18.884;2023-12-28T01:59:15;15.15;;;8.27;;
56720;SDS011;53183;47.412;18.884;2023-12-28T02:01:43;15.18;;;8.23;;
56720;SDS011;53183;47.412;18.884;2023-12-28T02:04:11;16.02;;;8.85;;
56720;SDS011;53183;47.412;18.884;2023-12-28T02:06:38;18.60;;;8.98;;
56720;SDS011;53183;47.412;18.884;2023-12-28T02:09:07;18.70;;;8.35;;
56720;SDS011;53183;47.412;18.884;2023-12-28T02:11:35;18.05;;;8.32;;
56720;SDS011;53183;47.412;18.884;2023-12-28T02:14:03;16.52;;;8.13;;
56720;SDS011;53183;47.412;18.884;2023-12-28T02:16:35;18.00;;;7.65;;
56720;SDS011;53183;47.412;18.884;2023-12-28T02:19:25;16.35;;;7.55;;
56720;SDS011;53183;47.412;18.884;2023-12-28T02:21:58;15.18;;;7.50;;
56720;SDS011;53183;47.412;18.884;2023-12-28T02:24:26;17.10;;;8.50;;
56720;SDS011;53183;47.412;18.884;2023-12-28T02:26:53;17.75;;;7.72;;
56720;SDS011;53183;47.412;18.884;2023-12-28T02:29:21;16.92;;;7.90;;
56720;SDS011;53183;47.412;18.884;2023-12-28T02:31:51;18.67;;;8.82;;
56720;SDS011;53183;47.412;18.884;2023-12-28T02:34:29;13.05;;;7.30;;
56720;SDS011;53183;47.412;18.884;2023-12-28T02:37:02;19.73;;;8.15;;
56720;SDS011;53183;47.412;18.884;2023-12-28T02:39:31;13.68;;;7.68;;
56720;SDS011;53183;47.412;18.884;2023-12-28T02:42:00;16.27;;;7.62;;
56720;SDS011;53183;47.412;18.884;2023-12-28T02:44:28;12.93;;;7.28;;
56720;SDS011;53183;47.412;18.884;2023-12-28T02:46:55;17.42;;;8.20;;
56720;SDS011;53183;47.412;18.884;2023-12-28T02:49:22;13.18;;;6.72;;
56720;SDS011;53183;47.412;18.884;2023-12-28T02:51:50;15.50;;;8.63;;
56720;SDS011;53183;47.412;18.884;2023-12-28T02:54:18;22.37;;;8.60;;
56720;SDS011;53183;47.412;18.884;2023-12-28T02:56:45;16.37;;;8.48;;
56720;SDS011;53183;47.412;18.884;2023-12-28T02:59:12;13.88;;;7.03;;
56720;SDS011;53183;47.412;18.884;2023-12-28T03:01:39;17.17;;;8.48;;
56720;SDS011;53183;47.412;18.884;2023-12-28T03:04:07;19.75;;;7.25;;
56720;SDS011;53183;47.412;18.884;2023-12-28T03:06:36;16.45;;;7.25;;
56720;SDS011;53183;47.412;18.884;2023-12-28T03:09:05;13.20;;;7.18;;
56720;SDS011;53183;47.412;18.884;2023-12-28T03:11:33;16.62;;;7.93;;
56720;SDS011;53183;47.412;18.884;2023-12-28T03:14:00;19.15;;;9.07;;
56720;SDS011;53183;47.412;18.884;2023-12-28T03:16:28;16.45;;;7.03;;
56720;SDS011;53183;47.412;18.884;2023-12-28T03:18:57;20.67;;;9.43;;
56720;SDS011;53183;47.412;18.884;2023-12-28T03:21:24;20.88;;;8.73;;
56720;SDS011;53183;47.412;18.884;2023-12-28T03:23:53;12.57;;;7.62;;
56720;SDS011;53183;47.412;18.884;2023-12-28T03:26:20;22.52;;;8.63;;
56720;SDS011;53183;47.412;18.884;2023-12-28T03:28:47;17.73;;;8.35;;
56720;SDS011;53183;47.412;18.884;2023-12-28T03:31:14;17.15;;;7.85;;
56720;SDS011;53183;47.412;18.884;2023-12-28T03:33:41;15.38;;;7.55;;
56720;SDS011;53183;47.412;18.884;2023-12-28T03:36:08;16.92;;;8.40;;
56720;SDS011;53183;47.412;18.884;2023-12-28T03:38:46;12.82;;;7.57;;
56720;SDS011;53183;47.412;18.884;2023-12-28T03:41:17;14.95;;;7.53;;
56720;SDS011;53183;47.412;18.884;2023-12-28T03:43:48;15.43;;;8.50;;
56720;SDS011;53183;47.412;18.884;2023-12-28T03:46:16;14.48;;;7.55;;
56720;SDS011;53183;47.412;18.884;2023-12-28T03:48:44;12.45;;;6.65;;
56720;SDS011;53183;47.412;18.884;2023-12-28T03:51:15;13.05;;;8.02;;
56720;SDS011;53183;47.412;18.884;2023-12-28T03:53:42;13.00;;;7.50;;
56720;SDS011;53183;47.412;18.884;2023-12-28T03:56:22;14.98;;;7.47;;
56720;SDS011;53183;47.412;18.884;2023-12-28T03:58:54;15.52;;;7.62;;
56720;SDS011;53183;47.412;18.884;2023-12-28T04:01:21;16.48;;;7.00;;
56720;SDS011;53183;47.412;18.884;2023-12-28T04:03:50;15.23;;;7.10;;
56720;SDS011;53183;47.412;18.884;2023-12-28T04:06:17;14.15;;;6.70;;
56720;SDS011;53183;47.412;18.884;2023-12-28T04:08:45;14.70;;;8.10;;
56720;SDS011;53183;47.412;18.884;2023-12-28T04:11:13;13.13;;;7.45;;
56720;SDS011;53183;47.412;18.884;2023-12-28T04:13:40;16.00;;;7.70;;
56720;SDS011;53183;47.412;18.884;2023-12-28T04:16:11;15.75;;;7.12;;
56720;SDS011;53183;47.412;18.884;2023-12-28T04:18:40;18.42;;;8.30;;
56720;SDS011;53183;47.412;18.884;2023-12-28T04:21:09;19.00;;;8.75;;
56720;SDS011;53183;47.412;18.884;2023-12-28T04:23:38;16.67;;;8.07;;
56720;SDS011;53183;47.412;18.884;2023-12-28T04:26:06;21.42;;;8.05;;
56720;SDS011;53183;47.412;18.884;2023-12-28T04:28:34;21.45;;;9.30;;
56720;SDS011;53183;47.412;18.884;2023-12-28T04:31:04;20.75;;;8.05;;
56720;SDS011;53183;47.412;18.884;2023-12-28T04:33:33;13.43;;;8.07;;
56720;SDS011;53183;47.412;18.884;2023-12-28T04:36:02;15.93;;;7.60;;
56720;SDS011;53183;47.412;18.884;2023-12-28T04:38:31;18.65;;;8.45;;
56720;SDS011;53183;47.412;18.884;2023-12-28T04:40:59;18.70;;;8.07;;
56720;SDS011;53183;47.412;18.884;2023-12-28T04:43:28;14.15;;;7.82;;
56720;SDS011;53183;47.412;18.884;2023-12-28T04:45:57;16.42;;;8.82;;
56720;SDS011;53183;47.412;18.884;2023-12-28T04:48:30;14.48;;;8.43;;
56720;SDS011;53183;47.412;18.884;2023-12-28T04:50:58;16.73;;;8.40;;
56720;SDS011;53183;47.412;18.884;2023-12-28T04:53:32;22.65;;;9.27;;
56720;SDS011;53183;47.412;18.884;2023-12-28T04:56:01;19.02;;;8.77;;
56720;SDS011;53183;47.412;18.884;2023-12-28T04:58:28;16.27;;;8.27;;
56720;SDS011;53183;47.412;18.884;2023-12-28T05:00:56;17.02;;;8.77;;
56720;SDS011;53183;47.412;18.884;2023-12-28T05:03:24;17.67;;;8.52;;
56720;SDS011;53183;47.412;18.884;2023-12-28T05:05:52;19.00;;;8.93;;
56720;SDS011;53183;47.412;18.884;2023-12-28T05:08:21;19.83;;;9.80;;
56720;SDS011;53183;47.412;18.884;2023-12-28T05:10:49;16.62;;;8.25;;
56720;SDS011;53183;47.412;18.884;2023-12-28T05:13:16;12.77;;;7.72;;
56720;SDS011;53183;47.412;18.884;2023-12-28T05:15:44;17.75;;;7.93;;
56720;SDS011;53183;47.412;18.884;2023-12-28T05:18:12;22.40;;;7.75;;
56720;SDS011;53183;47.412;18.884;2023-12-28T05:20:40;19.73;;;9.07;;
56720;SDS011;53183;47.412;18.884;2023-12-28T05:23:11;20.92;;;9.63;;
56720;SDS011;53183;47.412;18.884;2023-12-28T05:25:38;19.75;;;9.15;;
56720;SDS011;53183;47.412;18.884;2023-12-28T05:28:08;17.52;;;9.93;;
56720;SDS011;53183;47.412;18.884;2023-12-28T05:30:36;18.67;;;7.72;;
56720;SDS011;53183;47.412;18.884;2023-12-28T05:33:04;24.95;;;10.60;;
56720;SDS011;53183;47.412;18.884;2023-12-28T05:35:31;17.10;;;8.88;;
56720;SDS011;53183;47.412;18.884;2023-12-28T05:37:59;19.23;;;9.95;;
56720;SDS011;53183;47.412;18.884;2023-12-28T05:40:27;16.17;;;8.38;;
56720;SDS011;53183;47.412;18.884;2023-12-28T05:42:55;19.05;;;9.27;;
56720;SDS011;53183;47.412;18.884;2023-12-28T05:45:23;20.10;;;9.45;;
56720;SDS011;53183;47.412;18.884;2023-12-28T05:47:51;20.30;;;9.60;;
56720;SDS011;53183;47.412;18.884;2023-12-28T05:50:19;23.12;;;9.90;;
56720;SDS011;53183;47.412;18.884;2023-12-28T05:52:47;23.15;;;10.02;;
56720;SDS011;53183;47.412;18.884;2023-12-28T05:55:15;25.37;;;11.00;;
56720;SDS011;53183;47.412;18.884;2023-12-28T05:57:42;18.52;;;10.02;;
56720;SDS011;53183;47.412;18.884;2023-12-28T06:00:10;19.42;;;9.25;;
56720;SDS011;53183;47.412;18.884;2023-12-28T06:02:38;19.37;;;9.73;;
56720;SDS011;53183;47.412;18.884;2023-12-28T06:05:06;22.67;;;10.40;;
56720;SDS011;53183;47.412;18.884;2023-12-28T06:07:33;17.60;;;9.63;;
56720;SDS011;53183;47.412;18.884;2023-12-28T06:10:01;24.05;;;10.48;;
56720;SDS011;53183;47.412;18.884;2023-12-28T06:12:30;27.95;;;14.57;;
56720;SDS011;53183;47.412;18.884;2023-12-28T06:14:58;32.13;;;14.90;;
56720;SDS011;53183;47.412;18.884;2023-12-28T06:17:28;27.05;;;13.50;;
56720;SDS011;53183;47.412;18.884;2023-12-28T06:20:01;23.02;;;11.77;;
56720;SDS011;53183;47.412;18.884;2023-12-28T06:22:29;30.20;;;14.60;;
56720;SDS011;53183;47.412;18.884;2023-12-28T06:24:57;30.02;;;12.82;;
56720;SDS011;53183;47.412;18.884;2023-12-28T06:27:28;31.65;;;13.90;;
56720;SDS011;53183;47.412;18.884;2023-12-28T06:29:56;36.88;;;14.25;;
56720;SDS011;53183;47.412;18.884;2023-12-28T06:32:23;23.90;;;12.75;;
56720;SDS011;53183;47.412;18.884;2023-12-28T06:34:53;25.90;;;11.60;;
56720;SDS011;53183;47.412;18.884;2023-12-28T06:37:21;26.37;;;11.25;;
56720;SDS011;53183;47.412;18.884;2023-12-28T06:39:48;32.95;;;12.90;;
56720;SDS011;53183;47.412;18.884;2023-12-28T06:42:16;29.90;;;13.13;;
56720;SDS011;53183;47.412;18.884;2023-12-28T06:44:44;27.58;;;12.85;;
56720;SDS011;53183;47.412;18.884;2023-12-28T06:47:11;29.77;;;12.07;;
56720;SDS011;53183;47.412;18.884;2023-12-28T06:49:39;22.60;;;11.93;;
56720;SDS011;53183;47.412;18.884;2023-12-28T06:52:08;19.83;;;10.93;;
56720;SDS011;53183;47.412;18.884;2023-12-28T06:54:35;27.02;;;12.60;;
56720;SDS011;53183;47.412;18.884;2023-12-28T06:57:03;22.42;;;10.63;;
56720;SDS011;53183;47.412;18.884;2023-12-28T06:59:31;30.58;;;12.70;;
56720;SDS011;53183;47.412;18.884;2023-12-28T07:01:58;27.85;;;13.80;;
56720;SDS011;53183;47.412;18.884;2023-12-28T07:04:26;29.27;;;14.63;;
56720;SDS011;53183;47.412;18.884;2023-12-28T07:06:56;27.25;;;14.25;;
56720;SDS011;53183;47.412;18.884;2023-12-28T07:09:25;24.30;;;12.95;;
56720;SDS011;53183;47.412;18.884;2023-12-28T07:11:56;34.70;;;15.90;;
56720;SDS011;53183;47.412;18.884;2023-12-28T07:14:24;31.20;;;13.70;;
56720;SDS011;53183;47.412;18.884;2023-12-28T07:16:51;32.13;;;15.02;;
56720;SDS011;53183;47.412;18.884;2023-12-28T07:19:19;23.30;;;11.95;;
56720;SDS011;53183;47.412;18.884;2023-12-28T07:21:46;28.05;;;13.18;;
56720;SDS011;53183;47.412;18.884;2023-12-28T07:24:13;30.33;;;13.30;;
56720;SDS011;53183;47.412;18.884;2023-12-28T07:26:40;31.60;;;14.07;;
56720;SDS011;53183;47.412;18.884;2023-12-28T07:29:07;32.30;;;16.05;;
56720;SDS011;53183;47.412;18.884;2023-12-28T07:31:35;32.90;;;14.50;;
56720;SDS011;53183;47.412;18.884;2023-12-28T07:34:04;30.85;;;12.02;;
56720;SDS011;53183;47.412;18.884;2023-12-28T07:36:32;32.55;;;14.73;;
56720;SDS011;53183;47.412;18.884;2023-12-28T07:38:59;36.03;;;17.00;;
56720;SDS011;53183;47.412;18.884;2023-12-28T07:41:26;38.78;;;19.02;;
56720;SDS011;53183;47.412;18.884;2023-12-28T07:43:53;39.45;;;18.40;;
56720;SDS011;53183;47.412;18.884;2023-12-28T07:46:20;41.28;;;18.00;;
56720;SDS011;53183;47.412;18.884;2023-12-28T07:48:48;36.67;;;16.02;;
56720;SDS011;53183;47.412;18.884;2023-12-28T07:51:18;29.83;;;15.30;;
56720;SDS011;53183;47.412;18.884;2023-12-28T07:53:45;31.73;;;15.32;;
56720;SDS011;53183;47.412;18.884;2023-12-28T07:56:12;30.27;;;14.23;;
56720;SDS011;53183;47.412;18.884;2023-12-28T07:58:40;31.77;;;14.35;;
56720;SDS011;53183;47.412;18.884;2023-12-28T08:01:11;23.00;;;11.35;;
56720;SDS011;53183;47.412;18.884;2023-12-28T08:03:38;17.90;;;10.40;;
56720;SDS011;53183;47.412;18.884;2023-12-28T08:06:06;20.10;;;9.45;;
56720;SDS011;53183;47.412;18.884;2023-12-28T08:08:34;18.95;;;9.27;;
56720;SDS011;53183;47.412;18.884;2023-12-28T08:11:01;21.83;;;10.82;;
56720;SDS011;53183;47.412;18.884;2023-12-28T08:13:29;22.00;;;10.63;;
56720;SDS011;53183;47.412;18.884;2023-12-28T08:15:57;21.52;;;9.77;;
56720;SDS011;53183;47.412;18.884;2023-12-28T08:18:29;21.87;;;10.07;;
56720;SDS011;53183;47.412;18.884;2023-12-28T08:20:58;19.98;;;10.27;;
56720;SDS011;53183;47.412;18.884;2023-12-28T08:23:27;23.42;;;11.23;;
56720;SDS011;53183;47.412;18.884;2023-12-28T08:25:54;25.30;;;10.73;;
56720;SDS011;53183;47.412;18.884;2023-12-28T08:28:21;23.27;;;11.15;;
56720;SDS011;53183;47.412;18.884;2023-12-28T08:30:51;19.40;;;10.23;;
56720;SDS011;53183;47.412;18.884;2023-12-28T08:33:26;24.30;;;13.10;;
56720;SDS011;53183;47.412;18.884;2023-12-28T08:35:54;21.75;;;12.10;;
56720;SDS011;53183;47.412;18.884;2023-12-28T08:38:21;22.65;;;11.88;;
56720;SDS011;53183;47.412;18.884;2023-12-28T08:40:48;18.52;;;11.30;;
56720;SDS011;53183;47.412;18.884;2023-12-28T08:43:16;18.30;;;10.13;;
56720;SDS011;53183;47.412;18.884;2023-12-28T08:45:46;26.25;;;12.40;;
56720;SDS011;53183;47.412;18.884;2023-12-28T08:48:13;25.48;;;11.38;;
56720;SDS011;53183;47.412;18.884;2023-12-28T08:50:45;22.10;;;11.05;;
56720;SDS011;53183;47.412;18.884;2023-12-28T08:53:13;29.52;;;12.37;;
56720;SDS011;53183;47.412;18.884;2023-12-28T08:55:40;25.10;;;11.27;;
56720;SDS011;53183;47.412;18.884;2023-12-28T08:58:07;25.08;;;12.20;;
56720;SDS011;53183;47.412;18.884;2023-12-28T09:00:37;30.80;;;12.57;;
56720;SDS011;53183;47.412;18.884;2023-12-28T09:03:07;35.03;;;12.95;;
56720;SDS011;53183;47.412;18.884;2023-12-28T09:05:35;27.55;;;12.95;;
56720;SDS011;53183;47.412;18.884;2023-12-28T09:08:02;25.42;;;11.98;;
56720;SDS011;53183;47.412;18.884;2023-12-28T09:10:32;25.50;;;13.35;;
56720;SDS011;53183;47.412;18.884;2023-12-28T09:13:00;26.08;;;12.52;;
56720;SDS011;53183;47.412;18.884;2023-12-28T09:15:27;19.35;;;9.02;;
56720;SDS011;53183;47.412;18.884;2023-12-28T09:17:55;19.17;;;11.75;;
56720;SDS011;53183;47.412;18.884;2023-12-28T09:20:25;29.17;;;11.80;;
56720;SDS011;53183;47.412;18.884;2023-12-28T09:22:53;18.33;;;9.88;;
56720;SDS011;53183;47.412;18.884;2023-12-28T09:25:25;24.55;;;11.00;;
56720;SDS011;53183;47.412;18.884;2023-12-28T09:27:53;25.02;;;11.27;;
56720;SDS011;53183;47.412;18.884;2023-12-28T09:30:20;23.52;;;12.15;;
56720;SDS011;53183;47.412;18.884;2023-12-28T09:32:48;22.83;;;11.68;;
56720;SDS011;53183;47.412;18.884;2023-12-28T09:35:16;23.45;;;11.80;;
56720;SDS011;53183;47.412;18.884;2023-12-28T09:37:44;22.87;;;11.32;;
56720;SDS011;53183;47.412;18.884;2023-12-28T09:40:11;24.98;;;11.45;;
56720;SDS011;53183;47.412;18.884;2023-12-28T09:42:48;21.70;;;10.75;;
56720;SDS011;53183;47.412;18.884;2023-12-28T09:45:20;20.92;;;11.00;;
56720;SDS011;53183;47.412;18.884;2023-12-28T09:47:48;20.30;;;11.45;;
56720;SDS011;53183;47.412;18.884;2023-12-28T09:50:18;26.33;;;11.60;;
56720;SDS011;53183;47.412;18.884;2023-12-28T09:52:46;21.98;;;10.57;;
56720;SDS011;53183;47.412;18.884;2023-12-28T09:55:13;19.65;;;10.85;;
56720;SDS011;53183;47.412;18.884;2023-12-28T09:57:40;22.20;;;10.93;;
56720;SDS011;53183;47.412;18.884;2023-12-28T10:00:08;18.42;;;9.50;;
56720;SDS011;53183;47.412;18.884;2023-12-28T10:02:48;18.37;;;9.30;;
56720;SDS011;53183;47.412;18.884;2023-12-28T10:05:15;24.40;;;10.23;;
56720;SDS011;53183;47.412;18.884;2023-12-28T10:07:43;19.75;;;11.48;;
56720;SDS011;53183;47.412;18.884;2023-12-28T10:12:45;18.95;;;8.55;;
56720;SDS011;53183;47.412;18.884;2023-12-28T10:15:13;23.38;;;10.63;;
56720;SDS011;53183;47.412;18.884;2023-12-28T10:17:41;24.45;;;11.25;;
56720;SDS011;53183;47.412;18.884;2023-12-28T10:20:08;22.10;;;10.45;;
56720;SDS011;53183;47.412;18.884;2023-12-28T10:22:38;21.67;;;10.40;;
56720;SDS011;53183;47.412;18.884;2023-12-28T10:25:06;19.67;;;11.35;;
56720;SDS011;53183;47.412;18.884;2023-12-28T10:27:37;20.50;;;10.25;;
56720;SDS011;53183;47.412;18.884;2023-12-28T10:30:07;23.87;;;10.50;;
56720;SDS011;53183;47.412;18.884;2023-12-28T10:32:40;18.83;;;11.00;;
56720;SDS011;53183;47.412;18.884;2023-12-28T10:35:10;17.13;;;9.90;;
56720;SDS011;53183;47.412;18.884;2023-12-28T10:37:41;17.62;;;9.43;;
56720;SDS011;53183;47.412;18.884;2023-12-28T10:40:13;17.50;;;10.00;;
56720;SDS011;53183;47.412;18.884;2023-12-28T10:43:06;16.67;;;9.93;;
56720;SDS011;53183;47.412;18.884;2023-12-28T10:45:35;16.67;;;9.55;;
56720;SDS011;53183;47.412;18.884;2023-12-28T10:48:10;18.52;;;10.50;;
56720;SDS011;53183;47.412;18.884;2023-12-28T10:50:39;22.40;;;9.82;;
56720;SDS011;53183;47.412;18.884;2023-12-28T10:53:14;20.42;;;10.63;;
56720;SDS011;53183;47.412;18.884;2023-12-28T10:59:24;19.90;;;9.95;;
56720;SDS011;53183;47.412;18.884;2023-12-28T11:02:11;25.10;;;10.73;;
56720;SDS011;53183;47.412;18.884;2023-12-28T11:04:50;20.55;;;11.27;;
56720;SDS011;53183;47.412;18.884;2023-12-28T11:07:20;20.02;;;10.85;;
56720;SDS011;53183;47.412;18.884;2023-12-28T11:09:48;17.55;;;10.43;;
56720;SDS011;53183;47.412;18.884;2023-12-28T11:12:18;20.85;;;9.90;;
56720;SDS011;53183;47.412;18.884;2023-12-28T11:14:47;23.02;;;10.43;;
56720;SDS011;53183;47.412;18.884;2023-12-28T11:17:18;18.45;;;10.90;;
56720;SDS011;53183;47.412;18.884;2023-12-28T11:19:48;19.27;;;9.88;;
56720;SDS011;53183;47.412;18.884;2023-12-28T11:22:16;17.42;;;9.25;;
56720;SDS011;53183;47.412;18.884;2023-12-28T11:24:49;15.55;;;8.52;;
56720;SDS011;53183;47.412;18.884;2023-12-28T11:27:20;18.05;;;10.88;;
56720;SDS011;53183;47.412;18.884;2023-12-28T11:29:48;25.48;;;11.40;;
56720;SDS011;53183;47.412;18.884;2023-12-28T11:32:16;22.65;;;11.12;;
56720;SDS011;53183;47.412;18.884;2023-12-28T11:34:45;21.70;;;11.30;;
56720;SDS011;53183;47.412;18.884;2023-12-28T11:37:13;17.10;;;9.80;;
56720;SDS011;53183;47.412;18.884;2023-12-28T11:39:46;20.67;;;11.07;;
56720;SDS011;53183;47.412;18.884;2023-12-28T11:42:19;18.70;;;10.10;;
56720;SDS011;53183;47.412;18.884;2023-12-28T11:44:52;21.15;;;11.52;;
56720;SDS011;53183;47.412;18.884;2023-12-28T11:47:22;22.00;;;12.13;;
56720;SDS011;53183;47.412;18.884;2023-12-28T11:49:54;24.35;;;11.43;;
56720;SDS011;53183;47.412;18.884;2023-12-28T11:52:26;24.73;;;12.05;;
56720;SDS011;53183;47.412;18.884;2023-12-28T11:54:55;23.12;;;10.93;;
56720;SDS011;53183;47.412;18.884;2023-12-28T11:57:23;35.05;;;11.85;;
56720;SDS011;53183;47.412;18.884;2023-12-28T11:59:58;21.87;;;11.52;;
56720;SDS011;53183;47.412;18.884;2023-12-28T12:02:27;19.45;;;11.55;;
56720;SDS011;53183;47.412;18.884;2023-12-28T12:04:55;17.87;;;10.38;;
56720;SDS011;53183;47.412;18.884;2023-12-28T12:07:28;16.67;;;9.68;;
56720;SDS011;53183;47.412;18.884;2023-12-28T12:09:57;22.10;;;11.20;;
56720;SDS011;53183;47.412;18.884;2023-12-28T12:12:26;25.50;;;10.38;;
56720;SDS011;53183;47.412;18.884;2023-12-28T12:14:54;23.58;;;10.48;;
56720;SDS011;53183;47.412;18.884;2023-12-28T12:17:23;15.57;;;9.15;;
56720;SDS011;53183;47.412;18.884;2023-12-28T12:19:52;21.62;;;10.63;;
56720;SDS011;53183;47.412;18.884;2023-12-28T12:22:22;17.65;;;10.27;;
56720;SDS011;53183;47.412;18.884;2023-12-28T12:24:54;21.48;;;11.20;;
56720;SDS011;53183;47.412;18.884;2023-12-28T12:27:26;19.17;;;10.23;;
56720;SDS011;53183;47.412;18.884;2023-12-28T12:29:53;24.17;;;11.02;;
56720;SDS011;53183;47.412;18.884;2023-12-28T12:32:21;19.48;;;10.02;;
56720;SDS011;53183;47.412;18.884;2023-12-28T12:34:49;17.60;;;10.65;;
56720;SDS011;53183;47.412;18.884;2023-12-28T12:37:17;19.23;;;9.82;;
56720;SDS011;53183;47.412;18.884;2023-12-28T12:39:45;16.20;;;9.75;;
56720;SDS011;53183;47.412;18.884;2023-12-28T12:42:13;15.35;;;9.40;;
56720;SDS011;53183;47.412;18.884;2023-12-28T12:44:42;19.05;;;9.45;;
56720;SDS011;53183;47.412;18.884;2023-12-28T12:47:10;19.05;;;9.82;;
56720;SDS011;53183;47.412;18.884;2023-12-28T12:49:42;25.52;;;12.23;;
56720;SDS011;53183;47.412;18.884;2023-12-28T12:52:12;20.88;;;10.88;;
56720;SDS011;53183;47.412;18.884;2023-12-28T12:54:42;19.25;;;10.80;;
56720;SDS011;53183;47.412;18.884;2023-12-28T12:57:09;19.55;;;11.32;;
56720;SDS011;53183;47.412;18.884;2023-12-28T12:59:38;17.37;;;10.57;;
56720;SDS011;53183;47.412;18.884;2023-12-28T13:02:08;20.08;;;10.60;;
56720;SDS011;53183;47.412;18.884;2023-12-28T13:04:37;22.83;;;10.35;;
56720;SDS011;53183;47.412;18.884;2023-12-28T13:07:05;21.85;;;9.90;;
56720;SDS011;53183;47.412;18.884;2023-12-28T13:09:34;18.55;;;9.55;;
56720;SDS011;53183;47.412;18.884;2023-12-28T13:12:01;25.62;;;9.18;;
56720;SDS011;53183;47.412;18.884;2023-12-28T13:14:32;19.73;;;10.32;;
56720;SDS011;53183;47.412;18.884;2023-12-28T13:17:00;20.48;;;8.82;;
56720;SDS011;53183;47.412;18.884;2023-12-28T13:19:27;15.52;;;9.25;;
56720;SDS011;53183;47.412;18.884;2023-12-28T13:21:54;21.80;;;11.80;;
56720;SDS011;53183;47.412;18.884;2023-12-28T13:24:21;22.48;;;11.12;;
56720;SDS011;53183;47.412;18.884;2023-12-28T13:26:48;17.67;;;11.75;;
56720;SDS011;53183;47.412;18.884;2023-12-28T13:29:18;18.60;;;10.60;;
56720;SDS011;53183;47.412;18.884;2023-12-28T13:31:45;20.30;;;10.13;;
56720;SDS011;53183;47.412;18.884;2023-12-28T13:34:17;15.73;;;8.73;;
56720;SDS011;53183;47.412;18.884;2023-12-28T13:36:46;20.30;;;9.68;;
56720;SDS011;53183;47.412;18.884;2023-12-28T13:39:15;16.15;;;8.50;;
56720;SDS011;53183;47.412;18.884;2023-12-28T13:41:43;20.90;;;10.80;;
56720;SDS011;53183;47.412;18.884;2023-12-28T13:44:11;21.60;;;10.32;;
56720;SDS011;53183;47.412;18.884;2023-12-28T13:46:39;16.92;;;9.05;;
56720;SDS011;53183;47.412;18.884;2023-12-28T13:49:07;19.70;;;8.68;;
56720;SDS011;53183;47.412;18.884;2023-12-28T13:51:35;18.37;;;9.55;;
56720;SDS011;53183;47.412;18.884;2023-12-28T13:54:03;17.90;;;9.45;;
56720;SDS011;53183;47.412;18.884;2023-12-28T13:56:33;20.12;;;9.15;;
56720;SDS011;53183;47.412;18.884;2023-12-28T13:59:00;18.33;;;9.45;;
56720;SDS011;53183;47.412;18.884;2023-12-28T14:01:27;19.62;;;10.43;;
56720;SDS011;53183;47.412;18.884;2023-12-28T14:03:55;15.93;;;9.20;;
56720;SDS011;53183;47.412;18.884;2023-12-28T14:06:23;17.27;;;9.60;;
56720;SDS011;53183;47.412;18.884;2023-12-28T14:08:51;19.55;;;9.60;;
56720;SDS011;53183;47.412;18.884;2023-12-28T14:11:18;16.15;;;8.98;;
56720;SDS011;53183;47.412;18.884;2023-12-28T14:13:46;18.17;;;10.18;;
56720;SDS011;53183;47.412;18.884;2023-12-28T14:16:15;18.62;;;10.88;;
56720;SDS011;53183;47.412;18.884;2023-12-28T14:18:42;17.52;;;10.30;;
56720;SDS011;53183;47.412;18.884;2023-12-28T14:21:10;18.15;;;8.68;;
56720;SDS011;53183;47.412;18.884;2023-12-28T14:23:41;13.35;;;8.20;;
56720;SDS011;53183;47.412;18.884;2023-12-28T14:26:12;18.00;;;9.00;;
56720;SDS011;53183;47.412;18.884;2023-12-28T14:28:45;15.75;;;9.07;;